Nearby METAR Reports

 

KSJC - San Jose, California, USA
Distance from station: NE 9mi, 14km
Updated: Tue, 22-Sep-2020 11:53pm EDT
Few Clouds
Few Clouds
 Wind from N
Wind: N 5 mph , 7 km/h
Temperature: 66°F , 19°C
Dew Point: 54°F , 12°C
Humidity: 64%
Barometer: 30.08 inHg , 1018.6 hPa
Clouds: Few Clouds
Visibility: 10 miles , 16 km
Cloud details: Few Clouds 6000 ft
2020/09/23 03:53 KSJC 230353Z 01004KT 10SM FEW060 19/12 A3008 RMK AO2 SLP186 T01890122
KNUQ - Moffett Nas/Mtn, California, USA
Distance from station: N 9mi, 14km
Updated: Tue, 22-Sep-2020 9:55am EDT
NOT Current
Clear
Clear
 Wind from SE
Wind: SE 3 mph , 6 km/h
Temperature: 59°F , 15°C
Dew Point: 57°F , 14°C
Humidity: 94%
Barometer: 30.02 inHg , 1016.6 hPa
Clouds: Clear
Visibility: 10 miles , 16 km
2020/09/22 13:55 KNUQ 221355Z AUTO 14003KT 10SM CLR 15/14 A3002 RMK AO2
 
KPAO - Palo Alto, California, USA
Distance from station: NNW 14mi, 23km
Updated: Tue, 22-Sep-2020 9:47pm EDT
NOT Current
Partly cloudy
Partly cloudy
 Wind from NNW
Wind: NNW 9 mph , 15 km/h
Temperature: 70°F , 21°C
Dew Point: 54°F , 12°C
Humidity: 57%
Barometer: 30.04 inHg , 1017.3 hPa
Clouds: Partly cloudy
Visibility: 10 miles , 16 km
Cloud details: Partly cloudy 12000 ft
2020/09/23 01:47 KPAO 230147Z 34008KT 10SM SCT120 21/12 A3004 RMK LAST
KRHV - San Jose/Reid, California, USA
Distance from station: ENE 12mi, 19km
Updated: Tue, 22-Sep-2020 11:50pm EDT
Clear
Clear
 Wind from NW
Wind: NW 8 mph , 13 km/h
Temperature: 66°F , 19°C
Dew Point: 50°F , 10°C
Humidity: 56%
Barometer: 30.09 inHg , 1019 hPa
Clouds: Clear
Visibility: 10 miles , 16 km
2020/09/23 03:50 KRHV 230350Z 31007KT 10SM SKC 19/10 A3009
 
KOAK - Oakland, California, USA
Distance from station: NNW 31mi, 50km
Updated: Tue, 22-Sep-2020 11:53pm EDT
Few Clouds
Few Clouds
 Wind from W
Wind: W 7 mph , 11 km/h
Temperature: 66°F , 19°C
Dew Point: 55°F , 13°C
Humidity: 68%
Barometer: 30.07 inHg , 1018.3 hPa
Clouds: Few Clouds
Visibility: 10 miles , 16 km
Cloud details: Few Clouds 1000 ft
Few Clouds 20000 ft
2020/09/23 03:53 KOAK 230353Z 28006KT 10SM FEW010 FEW200 19/13 A3007 RMK AO2 SLP181 T01890133
KSQL - San Carlos Airpo, California, USA
Distance from station: NW 21mi, 34km
Updated: Tue, 22-Sep-2020 11:47pm EDT
Few Clouds
Few Clouds
 Wind from varies
Wind: varies 5 mph , 7 km/h
Temperature: 66°F , 19°C
Dew Point: 50°F , 10°C
Humidity: 56%
Barometer: 30.08 inHg , 1018.6 hPa
Clouds: Few Clouds
Visibility: 10 miles , 16 km
Cloud details: Few Clouds 1000 ft
2020/09/23 03:47 KSQL 230347Z VRB04KT 10SM FEW010 19/10 A3008 RMK LAST
 
KSFO - San Francisco, California, USA
Distance from station: NW 30mi, 49km
Updated: Tue, 22-Sep-2020 11:56pm EDT
Few Clouds
Few Clouds
 Wind from WNW
Wind: WNW 14 mph , 22 km/h
Temperature: 61°F , 16°C
Dew Point: 54°F , 12°C
Humidity: 77%
Barometer: 30.07 inHg , 1018.3 hPa
Clouds: Few Clouds
Visibility: 10 miles , 16 km
Cloud details: Few Clouds 1000 ft
2020/09/23 03:56 KSFO 230356Z 29012KT 10SM FEW010 16/12 A3007 RMK AO2 SLP182 T01610122
KE16 - San Martin, California, USA
Distance from station: ESE 27mi, 43km
Updated: Tue, 22-Sep-2020 11:45pm EDT

 Wind from NW
Wind: NW 13 mph , 20 km/h, Gust: 17 mph , 28 km/h
Temperature: 68°F , 20°C
Dew Point: 45°F , 7°C
Humidity: 43%
Barometer: 30.07 inHg , 1018.3 hPa
Visibility: 10 miles , 16 km
2020/09/23 03:45 KE16 230345Z AUTO 31011G15KT 10SM 20/07 A3007 RMK AO2 PWINO PNO
 
KWVI - Watsonville, California, USA
Distance from station: SSE 27mi, 44km
Updated: Tue, 22-Sep-2020 11:53pm EDT
Clear
Clear
 Wind from SSE
Wind: SSE 5 mph , 7 km/h
Temperature: 61°F , 16°C
Dew Point: 55°F , 13°C
Humidity: 83%
Barometer: 30.06 inHg , 1017.9 hPa
Clouds: Clear
Visibility: 10 miles , 16 km
2020/09/23 03:53 KWVI 230353Z AUTO 15004KT 10SM CLR 16/13 A3006 RMK AO2 SLP178 T01560133
KHAF - Half Moon Bay, California, USA
Distance from station: WNW 31mi, 50km
Updated: Tue, 22-Sep-2020 11:55pm EDT
Clear
Clear
 Wind from NNW
Wind: NNW 3 mph , 6 km/h
Temperature: 57°F , 14°C
Dew Point: 55°F , 13°C
Humidity: 94%
Barometer: 30.10 inHg , 1019.3 hPa
Clouds: Clear
Visibility: 8 miles , 13 km
2020/09/23 03:55 KHAF 230355Z AUTO 34003KT 8SM CLR 14/13 A3010 RMK AO2
 
KHWD - Hayward, California, USA
Distance from station: N 28mi, 44km
Updated: Tue, 22-Sep-2020 11:54pm EDT
Clear
Clear
 Wind from calm
Wind: Calm
Temperature: 66°F , 19°C
Dew Point: 55°F , 13°C
Humidity: 68%
Barometer: 30.07 inHg , 1018.3 hPa
Clouds: Clear
Visibility: 10 miles , 16 km
2020/09/23 03:54 KHWD 230354Z 00000KT 10SM CLR 19/13 A3007 RMK AO2 SLP190 T01890128
KLVK - Livermore, California, USA
Distance from station: NNE 31mi, 51km
Updated: Tue, 22-Sep-2020 11:53pm EDT
Clear
Clear
 Wind from WSW
Wind: WSW 3 mph , 6 km/h
Temperature: 63°F , 17°C
Dew Point: 52°F , 11°C
Humidity: 68%
Barometer: 30.06 inHg , 1017.9 hPa
Clouds: Clear
Visibility: 10 miles , 16 km
2020/09/23 03:53 KLVK 230353Z 25003KT 10SM CLR 17/11 A3006 RMK AO2 SLP175 T01720111